sensor_id;sensor_type;location;lat;lon;timestamp;P1;durP1;ratioP1;P2;durP2;ratioP2
31073;SDS011;17730;53.552;9.940;2022-07-05T00:02:15;9.85;;;1.70;;
31073;SDS011;17730;53.552;9.940;2022-07-05T00:04:41;5.10;;;1.60;;
31073;SDS011;17730;53.552;9.940;2022-07-05T00:07:07;10.55;;;2.22;;
31073;SDS011;17730;53.552;9.940;2022-07-05T00:09:50;9.20;;;1.70;;
31073;SDS011;17730;53.552;9.940;2022-07-05T00:12:17;6.38;;;1.77;;
31073;SDS011;17730;53.552;9.940;2022-07-05T00:14:44;7.90;;;2.35;;
31073;SDS011;17730;53.552;9.940;2022-07-05T00:17:11;4.03;;;1.70;;
31073;SDS011;17730;53.552;9.940;2022-07-05T00:19:37;8.70;;;2.00;;
31073;SDS011;17730;53.552;9.940;2022-07-05T00:22:03;6.07;;;2.15;;
31073;SDS011;17730;53.552;9.940;2022-07-05T00:24:29;6.68;;;1.83;;
31073;SDS011;17730;53.552;9.940;2022-07-05T00:26:54;6.45;;;1.92;;
31073;SDS011;17730;53.552;9.940;2022-07-05T00:29:20;7.60;;;1.90;;
31073;SDS011;17730;53.552;9.940;2022-07-05T00:31:45;6.47;;;2.42;;
31073;SDS011;17730;53.552;9.940;2022-07-05T00:34:11;6.38;;;1.98;;
31073;SDS011;17730;53.552;9.940;2022-07-05T00:36:37;6.53;;;2.17;;
31073;SDS011;17730;53.552;9.940;2022-07-05T00:39:03;9.32;;;2.38;;
31073;SDS011;17730;53.552;9.940;2022-07-05T00:41:28;9.82;;;2.90;;
31073;SDS011;17730;53.552;9.940;2022-07-05T00:43:58;4.82;;;1.95;;
31073;SDS011;17730;53.552;9.940;2022-07-05T00:46:26;9.18;;;2.88;;
31073;SDS011;17730;53.552;9.940;2022-07-05T00:48:52;7.80;;;2.30;;
31073;SDS011;17730;53.552;9.940;2022-07-05T00:51:18;6.05;;;2.30;;
31073;SDS011;17730;53.552;9.940;2022-07-05T00:53:44;11.13;;;2.90;;
31073;SDS011;17730;53.552;9.940;2022-07-05T00:56:10;9.80;;;2.70;;
31073;SDS011;17730;53.552;9.940;2022-07-05T00:58:37;6.35;;;2.92;;
31073;SDS011;17730;53.552;9.940;2022-07-05T01:01:03;7.25;;;2.88;;
31073;SDS011;17730;53.552;9.940;2022-07-05T01:03:32;8.75;;;2.90;;
31073;SDS011;17730;53.552;9.940;2022-07-05T01:05:58;5.82;;;2.92;;
31073;SDS011;17730;53.552;9.940;2022-07-05T01:08:30;8.45;;;2.92;;
31073;SDS011;17730;53.552;9.940;2022-07-05T01:10:57;10.13;;;3.05;;
31073;SDS011;17730;53.552;9.940;2022-07-05T01:13:23;9.35;;;3.20;;
31073;SDS011;17730;53.552;9.940;2022-07-05T01:15:50;7.45;;;2.50;;
31073;SDS011;17730;53.552;9.940;2022-07-05T01:18:16;5.90;;;2.30;;
31073;SDS011;17730;53.552;9.940;2022-07-05T01:20:42;7.28;;;2.83;;
31073;SDS011;17730;53.552;9.940;2022-07-05T01:23:08;8.98;;;3.78;;
31073;SDS011;17730;53.552;9.940;2022-07-05T01:25:34;11.38;;;3.45;;
31073;SDS011;17730;53.552;9.940;2022-07-05T01:28:00;6.20;;;2.70;;
31073;SDS011;17730;53.552;9.940;2022-07-05T01:30:26;6.97;;;2.70;;
31073;SDS011;17730;53.552;9.940;2022-07-05T01:32:52;9.45;;;3.47;;
31073;SDS011;17730;53.552;9.940;2022-07-05T01:35:18;10.05;;;2.70;;
31073;SDS011;17730;53.552;9.940;2022-07-05T01:37:48;7.00;;;2.53;;
31073;SDS011;17730;53.552;9.940;2022-07-05T01:40:14;6.57;;;3.22;;
31073;SDS011;17730;53.552;9.940;2022-07-05T01:42:40;6.93;;;2.55;;
31073;SDS011;17730;53.552;9.940;2022-07-05T01:45:06;13.23;;;2.80;;
31073;SDS011;17730;53.552;9.940;2022-07-05T01:47:36;8.05;;;3.75;;
31073;SDS011;17730;53.552;9.940;2022-07-05T01:50:02;11.38;;;3.20;;
31073;SDS011;17730;53.552;9.940;2022-07-05T01:52:30;8.85;;;2.83;;
31073;SDS011;17730;53.552;9.940;2022-07-05T01:54:58;6.45;;;3.10;;
31073;SDS011;17730;53.552;9.940;2022-07-05T01:57:26;6.45;;;3.10;;
31073;SDS011;17730;53.552;9.940;2022-07-05T01:59:51;8.73;;;3.08;;
31073;SDS011;17730;53.552;9.940;2022-07-05T02:02:17;9.23;;;2.97;;
31073;SDS011;17730;53.552;9.940;2022-07-05T02:04:43;8.35;;;3.10;;
31073;SDS011;17730;53.552;9.940;2022-07-05T02:07:09;11.02;;;3.58;;
31073;SDS011;17730;53.552;9.940;2022-07-05T02:09:35;8.18;;;3.90;;
31073;SDS011;17730;53.552;9.940;2022-07-05T02:12:01;10.88;;;3.78;;
31073;SDS011;17730;53.552;9.940;2022-07-05T02:14:28;13.35;;;3.15;;
31073;SDS011;17730;53.552;9.940;2022-07-05T02:16:54;9.20;;;3.50;;
31073;SDS011;17730;53.552;9.940;2022-07-05T02:19:20;6.35;;;3.63;;
31073;SDS011;17730;53.552;9.940;2022-07-05T02:21:45;10.60;;;3.40;;
31073;SDS011;17730;53.552;9.940;2022-07-05T02:24:11;9.02;;;4.13;;
31073;SDS011;17730;53.552;9.940;2022-07-05T02:26:36;7.20;;;4.47;;
31073;SDS011;17730;53.552;9.940;2022-07-05T02:29:02;7.57;;;3.80;;
31073;SDS011;17730;53.552;9.940;2022-07-05T02:31:29;10.00;;;3.63;;
31073;SDS011;17730;53.552;9.940;2022-07-05T02:33:55;8.43;;;3.75;;
31073;SDS011;17730;53.552;9.940;2022-07-05T02:36:21;7.32;;;3.50;;
31073;SDS011;17730;53.552;9.940;2022-07-05T02:38:47;6.70;;;3.47;;
31073;SDS011;17730;53.552;9.940;2022-07-05T02:41:13;7.22;;;3.65;;
31073;SDS011;17730;53.552;9.940;2022-07-05T02:43:39;10.00;;;3.83;;
31073;SDS011;17730;53.552;9.940;2022-07-05T02:46:05;9.63;;;4.50;;
31073;SDS011;17730;53.552;9.940;2022-07-05T02:48:33;10.68;;;4.07;;
31073;SDS011;17730;53.552;9.940;2022-07-05T02:51:00;7.43;;;3.63;;
31073;SDS011;17730;53.552;9.940;2022-07-05T02:53:26;9.90;;;4.45;;
31073;SDS011;17730;53.552;9.940;2022-07-05T02:55:51;11.02;;;4.22;;
31073;SDS011;17730;53.552;9.940;2022-07-05T02:58:17;14.55;;;4.85;;
31073;SDS011;17730;53.552;9.940;2022-07-05T03:00:46;10.05;;;4.10;;
31073;SDS011;17730;53.552;9.940;2022-07-05T03:03:13;8.00;;;4.10;;
31073;SDS011;17730;53.552;9.940;2022-07-05T03:05:39;10.57;;;3.50;;
31073;SDS011;17730;53.552;9.940;2022-07-05T03:08:05;9.30;;;4.80;;
31073;SDS011;17730;53.552;9.940;2022-07-05T03:10:31;10.82;;;4.78;;
31073;SDS011;17730;53.552;9.940;2022-07-05T03:12:57;11.88;;;4.18;;
31073;SDS011;17730;53.552;9.940;2022-07-05T03:15:22;11.85;;;3.97;;
31073;SDS011;17730;53.552;9.940;2022-07-05T03:17:48;8.32;;;4.07;;
31073;SDS011;17730;53.552;9.940;2022-07-05T03:20:14;13.68;;;4.57;;
31073;SDS011;17730;53.552;9.940;2022-07-05T03:22:39;15.73;;;4.43;;
31073;SDS011;17730;53.552;9.940;2022-07-05T03:25:05;10.32;;;3.72;;
31073;SDS011;17730;53.552;9.940;2022-07-05T03:27:31;12.73;;;3.85;;
31073;SDS011;17730;53.552;9.940;2022-07-05T03:29:57;7.30;;;3.92;;
31073;SDS011;17730;53.552;9.940;2022-07-05T03:32:22;7.28;;;4.07;;
31073;SDS011;17730;53.552;9.940;2022-07-05T03:34:48;8.65;;;3.53;;
31073;SDS011;17730;53.552;9.940;2022-07-05T03:37:13;6.30;;;3.15;;
31073;SDS011;17730;53.552;9.940;2022-07-05T03:39:39;9.65;;;3.20;;
31073;SDS011;17730;53.552;9.940;2022-07-05T03:42:05;9.48;;;3.30;;
31073;SDS011;17730;53.552;9.940;2022-07-05T03:44:30;9.52;;;3.45;;
31073;SDS011;17730;53.552;9.940;2022-07-05T03:46:57;7.35;;;3.40;;
31073;SDS011;17730;53.552;9.940;2022-07-05T03:49:24;6.20;;;2.88;;
31073;SDS011;17730;53.552;9.940;2022-07-05T03:51:49;8.48;;;2.97;;
31073;SDS011;17730;53.552;9.940;2022-07-05T03:54:15;11.35;;;3.20;;
31073;SDS011;17730;53.552;9.940;2022-07-05T03:56:40;10.57;;;3.33;;
31073;SDS011;17730;53.552;9.940;2022-07-05T03:59:06;5.35;;;2.47;;
31073;SDS011;17730;53.552;9.940;2022-07-05T04:01:32;7.15;;;2.92;;
31073;SDS011;17730;53.552;9.940;2022-07-05T04:03:57;5.53;;;2.92;;
31073;SDS011;17730;53.552;9.940;2022-07-05T04:06:23;4.88;;;2.45;;
31073;SDS011;17730;53.552;9.940;2022-07-05T04:08:49;9.60;;;2.90;;
31073;SDS011;17730;53.552;9.940;2022-07-05T04:11:14;7.30;;;2.70;;
31073;SDS011;17730;53.552;9.940;2022-07-05T04:13:41;9.18;;;3.10;;
31073;SDS011;17730;53.552;9.940;2022-07-05T04:16:06;6.38;;;2.70;;
31073;SDS011;17730;53.552;9.940;2022-07-05T04:18:32;4.75;;;2.78;;
31073;SDS011;17730;53.552;9.940;2022-07-05T04:20:58;6.75;;;2.83;;
31073;SDS011;17730;53.552;9.940;2022-07-05T04:23:24;6.40;;;3.10;;
31073;SDS011;17730;53.552;9.940;2022-07-05T04:25:49;7.97;;;2.65;;
31073;SDS011;17730;53.552;9.940;2022-07-05T04:28:15;6.63;;;3.20;;
31073;SDS011;17730;53.552;9.940;2022-07-05T04:30:41;5.75;;;2.80;;
31073;SDS011;17730;53.552;9.940;2022-07-05T04:33:06;5.15;;;2.78;;
31073;SDS011;17730;53.552;9.940;2022-07-05T04:35:32;10.13;;;3.10;;
31073;SDS011;17730;53.552;9.940;2022-07-05T04:37:57;5.55;;;2.55;;
31073;SDS011;17730;53.552;9.940;2022-07-05T04:40:23;7.35;;;2.55;;
31073;SDS011;17730;53.552;9.940;2022-07-05T04:42:48;5.57;;;2.90;;
31073;SDS011;17730;53.552;9.940;2022-07-05T04:45:14;4.15;;;2.38;;
31073;SDS011;17730;53.552;9.940;2022-07-05T04:47:40;8.60;;;2.88;;
31073;SDS011;17730;53.552;9.940;2022-07-05T04:50:05;4.47;;;2.88;;
31073;SDS011;17730;53.552;9.940;2022-07-05T04:52:31;11.35;;;2.97;;
31073;SDS011;17730;53.552;9.940;2022-07-05T04:54:57;9.82;;;3.28;;
31073;SDS011;17730;53.552;9.940;2022-07-05T04:57:23;5.97;;;2.83;;
31073;SDS011;17730;53.552;9.940;2022-07-05T04:59:48;13.98;;;3.38;;
31073;SDS011;17730;53.552;9.940;2022-07-05T05:02:14;7.03;;;3.03;;
31073;SDS011;17730;53.552;9.940;2022-07-05T05:04:40;7.72;;;3.05;;
31073;SDS011;17730;53.552;9.940;2022-07-05T05:07:05;6.88;;;2.60;;
31073;SDS011;17730;53.552;9.940;2022-07-05T05:09:31;6.10;;;2.72;;
31073;SDS011;17730;53.552;9.940;2022-07-05T05:11:57;5.63;;;2.97;;
31073;SDS011;17730;53.552;9.940;2022-07-05T05:14:22;5.20;;;2.60;;
31073;SDS011;17730;53.552;9.940;2022-07-05T05:16:48;11.15;;;3.70;;
31073;SDS011;17730;53.552;9.940;2022-07-05T05:19:13;5.88;;;2.90;;
31073;SDS011;17730;53.552;9.940;2022-07-05T05:21:39;7.00;;;2.97;;
31073;SDS011;17730;53.552;9.940;2022-07-05T05:24:05;13.57;;;3.30;;
31073;SDS011;17730;53.552;9.940;2022-07-05T05:26:31;6.20;;;2.90;;
31073;SDS011;17730;53.552;9.940;2022-07-05T05:28:56;9.35;;;3.20;;
31073;SDS011;17730;53.552;9.940;2022-07-05T05:31:22;7.28;;;3.17;;
31073;SDS011;17730;53.552;9.940;2022-07-05T05:33:47;6.82;;;2.70;;
31073;SDS011;17730;53.552;9.940;2022-07-05T05:36:13;6.30;;;2.72;;
31073;SDS011;17730;53.552;9.940;2022-07-05T05:38:39;8.18;;;2.97;;
31073;SDS011;17730;53.552;9.940;2022-07-05T05:41:04;8.20;;;2.65;;
31073;SDS011;17730;53.552;9.940;2022-07-05T05:43:30;8.27;;;3.45;;
31073;SDS011;17730;53.552;9.940;2022-07-05T05:45:56;12.70;;;3.58;;
31073;SDS011;17730;53.552;9.940;2022-07-05T05:48:21;10.13;;;4.05;;
31073;SDS011;17730;53.552;9.940;2022-07-05T05:50:47;6.20;;;3.08;;
31073;SDS011;17730;53.552;9.940;2022-07-05T05:53:13;7.45;;;2.40;;
31073;SDS011;17730;53.552;9.940;2022-07-05T05:55:39;4.72;;;2.67;;
31073;SDS011;17730;53.552;9.940;2022-07-05T06:00:42;7.13;;;2.35;;
31073;SDS011;17730;53.552;9.940;2022-07-05T06:03:08;14.98;;;3.20;;
31073;SDS011;17730;53.552;9.940;2022-07-05T06:05:34;8.13;;;2.13;;
31073;SDS011;17730;53.552;9.940;2022-07-05T06:08:00;8.90;;;2.10;;
31073;SDS011;17730;53.552;9.940;2022-07-05T06:10:26;16.20;;;2.80;;
31073;SDS011;17730;53.552;9.940;2022-07-05T06:12:54;9.30;;;2.67;;
31073;SDS011;17730;53.552;9.940;2022-07-05T06:15:21;7.95;;;2.83;;
31073;SDS011;17730;53.552;9.940;2022-07-05T06:17:47;6.50;;;2.80;;
31073;SDS011;17730;53.552;9.940;2022-07-05T06:20:14;6.40;;;2.20;;
31073;SDS011;17730;53.552;9.940;2022-07-05T06:22:41;3.05;;;2.03;;
31073;SDS011;17730;53.552;9.940;2022-07-05T06:25:07;10.38;;;2.25;;
31073;SDS011;17730;53.552;9.940;2022-07-05T06:27:37;6.82;;;2.20;;
31073;SDS011;17730;53.552;9.940;2022-07-05T06:30:04;8.35;;;1.75;;
31073;SDS011;17730;53.552;9.940;2022-07-05T06:32:30;6.30;;;1.90;;
31073;SDS011;17730;53.552;9.940;2022-07-05T06:34:55;8.18;;;1.55;;
31073;SDS011;17730;53.552;9.940;2022-07-05T06:37:21;4.90;;;1.95;;
31073;SDS011;17730;53.552;9.940;2022-07-05T06:39:46;3.92;;;1.70;;
31073;SDS011;17730;53.552;9.940;2022-07-05T06:42:12;5.72;;;1.60;;
31073;SDS011;17730;53.552;9.940;2022-07-05T06:44:38;5.70;;;1.70;;
31073;SDS011;17730;53.552;9.940;2022-07-05T06:47:04;7.35;;;1.98;;
31073;SDS011;17730;53.552;9.940;2022-07-05T06:49:29;9.02;;;1.80;;
31073;SDS011;17730;53.552;9.940;2022-07-05T06:51:55;8.70;;;1.60;;
31073;SDS011;17730;53.552;9.940;2022-07-05T06:54:20;7.40;;;1.80;;
31073;SDS011;17730;53.552;9.940;2022-07-05T06:56:46;4.07;;;1.58;;
31073;SDS011;17730;53.552;9.940;2022-07-05T06:59:12;5.22;;;1.50;;
31073;SDS011;17730;53.552;9.940;2022-07-05T07:01:37;7.60;;;1.67;;
31073;SDS011;17730;53.552;9.940;2022-07-05T07:04:09;3.95;;;1.60;;
31073;SDS011;17730;53.552;9.940;2022-07-05T07:06:35;7.00;;;2.13;;
31073;SDS011;17730;53.552;9.940;2022-07-05T07:09:00;4.20;;;1.50;;
31073;SDS011;17730;53.552;9.940;2022-07-05T07:11:45;2.75;;;1.20;;
31073;SDS011;17730;53.552;9.940;2022-07-05T07:14:13;5.07;;;1.70;;
31073;SDS011;17730;53.552;9.940;2022-07-05T07:16:39;7.30;;;1.65;;
31073;SDS011;17730;53.552;9.940;2022-07-05T07:19:04;5.40;;;1.98;;
31073;SDS011;17730;53.552;9.940;2022-07-05T07:21:30;5.22;;;1.70;;
31073;SDS011;17730;53.552;9.940;2022-07-05T07:23:56;2.00;;;1.38;;
31073;SDS011;17730;53.552;9.940;2022-07-05T07:26:21;5.45;;;1.25;;
31073;SDS011;17730;53.552;9.940;2022-07-05T07:28:47;5.65;;;2.08;;
31073;SDS011;17730;53.552;9.940;2022-07-05T07:31:12;6.20;;;2.05;;
31073;SDS011;17730;53.552;9.940;2022-07-05T07:33:38;4.93;;;1.52;;
31073;SDS011;17730;53.552;9.940;2022-07-05T07:36:03;4.80;;;1.50;;
31073;SDS011;17730;53.552;9.940;2022-07-05T07:38:29;5.80;;;1.77;;
31073;SDS011;17730;53.552;9.940;2022-07-05T07:40:55;3.90;;;1.58;;
31073;SDS011;17730;53.552;9.940;2022-07-05T07:43:21;5.45;;;1.63;;
31073;SDS011;17730;53.552;9.940;2022-07-05T07:45:47;9.70;;;1.77;;
31073;SDS011;17730;53.552;9.940;2022-07-05T07:48:13;4.40;;;1.58;;
31073;SDS011;17730;53.552;9.940;2022-07-05T07:50:39;7.15;;;1.75;;
31073;SDS011;17730;53.552;9.940;2022-07-05T07:53:04;3.67;;;1.70;;
31073;SDS011;17730;53.552;9.940;2022-07-05T07:55:30;7.80;;;2.17;;
31073;SDS011;17730;53.552;9.940;2022-07-05T07:57:55;5.57;;;1.75;;
31073;SDS011;17730;53.552;9.940;2022-07-05T08:00:21;2.55;;;1.08;;
31073;SDS011;17730;53.552;9.940;2022-07-05T08:02:47;5.32;;;1.23;;
31073;SDS011;17730;53.552;9.940;2022-07-05T08:05:12;5.32;;;1.45;;
31073;SDS011;17730;53.552;9.940;2022-07-05T08:07:38;4.03;;;1.48;;
31073;SDS011;17730;53.552;9.940;2022-07-05T08:10:04;3.35;;;1.30;;
31073;SDS011;17730;53.552;9.940;2022-07-05T08:12:30;5.07;;;1.35;;
31073;SDS011;17730;53.552;9.940;2022-07-05T08:14:56;5.65;;;1.58;;
31073;SDS011;17730;53.552;9.940;2022-07-05T08:17:22;6.00;;;1.35;;
31073;SDS011;17730;53.552;9.940;2022-07-05T08:19:47;6.05;;;1.20;;
31073;SDS011;17730;53.552;9.940;2022-07-05T08:22:31;4.05;;;1.33;;
31073;SDS011;17730;53.552;9.940;2022-07-05T08:24:57;5.25;;;1.10;;
31073;SDS011;17730;53.552;9.940;2022-07-05T08:27:23;7.82;;;1.33;;
31073;SDS011;17730;53.552;9.940;2022-07-05T08:29:49;5.70;;;1.75;;
31073;SDS011;17730;53.552;9.940;2022-07-05T08:32:15;6.30;;;1.48;;
31073;SDS011;17730;53.552;9.940;2022-07-05T08:34:41;3.50;;;1.33;;
31073;SDS011;17730;53.552;9.940;2022-07-05T08:37:07;3.10;;;0.82;;
31073;SDS011;17730;53.552;9.940;2022-07-05T08:39:32;4.07;;;1.05;;
31073;SDS011;17730;53.552;9.940;2022-07-05T08:41:58;2.63;;;1.20;;
31073;SDS011;17730;53.552;9.940;2022-07-05T08:44:25;2.65;;;1.00;;
31073;SDS011;17730;53.552;9.940;2022-07-05T08:46:58;1.38;;;0.90;;
31073;SDS011;17730;53.552;9.940;2022-07-05T08:49:27;6.68;;;1.30;;
31073;SDS011;17730;53.552;9.940;2022-07-05T08:51:54;4.07;;;0.85;;
31073;SDS011;17730;53.552;9.940;2022-07-05T08:54:21;2.58;;;0.98;;
31073;SDS011;17730;53.552;9.940;2022-07-05T08:56:49;5.85;;;0.95;;
31073;SDS011;17730;53.552;9.940;2022-07-05T08:59:15;2.45;;;0.77;;
31073;SDS011;17730;53.552;9.940;2022-07-05T09:01:40;3.47;;;1.13;;
31073;SDS011;17730;53.552;9.940;2022-07-05T09:04:09;5.07;;;0.93;;
31073;SDS011;17730;53.552;9.940;2022-07-05T09:06:40;2.03;;;1.13;;
31073;SDS011;17730;53.552;9.940;2022-07-05T09:09:06;1.88;;;1.15;;
31073;SDS011;17730;53.552;9.940;2022-07-05T09:11:36;1.95;;;0.85;;
31073;SDS011;17730;53.552;9.940;2022-07-05T09:14:07;3.58;;;1.00;;
31073;SDS011;17730;53.552;9.940;2022-07-05T09:16:43;5.32;;;0.77;;
31073;SDS011;17730;53.552;9.940;2022-07-05T09:19:09;2.00;;;0.95;;
31073;SDS011;17730;53.552;9.940;2022-07-05T09:21:35;2.13;;;0.80;;
31073;SDS011;17730;53.552;9.940;2022-07-05T09:24:05;2.50;;;1.42;;
31073;SDS011;17730;53.552;9.940;2022-07-05T09:26:39;2.60;;;1.20;;
31073;SDS011;17730;53.552;9.940;2022-07-05T09:29:18;1.98;;;1.25;;
31073;SDS011;17730;53.552;9.940;2022-07-05T09:31:45;2.50;;;1.00;;
31073;SDS011;17730;53.552;9.940;2022-07-05T09:34:20;3.75;;;1.13;;
31073;SDS011;17730;53.552;9.940;2022-07-05T09:39:17;3.28;;;1.05;;
31073;SDS011;17730;53.552;9.940;2022-07-05T09:42:14;1.58;;;0.65;;
31073;SDS011;17730;53.552;9.940;2022-07-05T09:44:48;4.32;;;0.95;;
31073;SDS011;17730;53.552;9.940;2022-07-05T09:47:17;3.53;;;0.77;;
31073;SDS011;17730;53.552;9.940;2022-07-05T09:49:46;2.78;;;1.20;;
31073;SDS011;17730;53.552;9.940;2022-07-05T09:52:27;2.22;;;1.15;;
31073;SDS011;17730;53.552;9.940;2022-07-05T09:57:30;2.13;;;1.10;;
31073;SDS011;17730;53.552;9.940;2022-07-05T10:00:00;1.77;;;0.88;;
31073;SDS011;17730;53.552;9.940;2022-07-05T10:02:45;5.50;;;1.70;;
31073;SDS011;17730;53.552;9.940;2022-07-05T10:05:25;2.78;;;1.05;;
31073;SDS011;17730;53.552;9.940;2022-07-05T10:07:53;2.95;;;1.33;;
31073;SDS011;17730;53.552;9.940;2022-07-05T10:10:24;4.10;;;0.98;;
31073;SDS011;17730;53.552;9.940;2022-07-05T10:12:57;4.13;;;0.93;;
31073;SDS011;17730;53.552;9.940;2022-07-05T10:15:31;1.88;;;0.80;;
31073;SDS011;17730;53.552;9.940;2022-07-05T10:23:05;2.88;;;1.30;;
31073;SDS011;17730;53.552;9.940;2022-07-05T10:25:34;3.50;;;1.23;;
31073;SDS011;17730;53.552;9.940;2022-07-05T10:28:01;4.15;;;1.15;;
31073;SDS011;17730;53.552;9.940;2022-07-05T10:30:27;4.57;;;1.10;;
31073;SDS011;17730;53.552;9.940;2022-07-05T10:32:54;2.97;;;0.80;;
31073;SDS011;17730;53.552;9.940;2022-07-05T10:35:21;2.17;;;0.80;;
31073;SDS011;17730;53.552;9.940;2022-07-05T10:37:47;2.50;;;0.77;;
31073;SDS011;17730;53.552;9.940;2022-07-05T10:40:14;4.25;;;0.90;;
31073;SDS011;17730;53.552;9.940;2022-07-05T10:42:41;2.00;;;0.82;;
31073;SDS011;17730;53.552;9.940;2022-07-05T10:53:13;5.67;;;1.00;;
31073;SDS011;17730;53.552;9.940;2022-07-05T10:55:55;2.38;;;0.80;;
31073;SDS011;17730;53.552;9.940;2022-07-05T11:03:40;1.83;;;0.88;;
31073;SDS011;17730;53.552;9.940;2022-07-05T11:06:25;3.05;;;0.82;;
31073;SDS011;17730;53.552;9.940;2022-07-05T11:09:18;2.17;;;1.00;;
31073;SDS011;17730;53.552;9.940;2022-07-05T11:14:30;2.45;;;0.70;;
31073;SDS011;17730;53.552;9.940;2022-07-05T11:22:27;3.45;;;1.23;;
31073;SDS011;17730;53.552;9.940;2022-07-05T11:24:53;4.38;;;1.33;;
31073;SDS011;17730;53.552;9.940;2022-07-05T11:27:20;2.50;;;1.05;;
31073;SDS011;17730;53.552;9.940;2022-07-05T11:34:41;1.63;;;1.13;;
31073;SDS011;17730;53.552;9.940;2022-07-05T11:37:24;3.45;;;0.88;;
31073;SDS011;17730;53.552;9.940;2022-07-05T11:42:36;6.07;;;0.90;;
31073;SDS011;17730;53.552;9.940;2022-07-05T11:45:07;2.38;;;1.20;;
31073;SDS011;17730;53.552;9.940;2022-07-05T11:47:34;5.65;;;1.17;;
31073;SDS011;17730;53.552;9.940;2022-07-05T11:50:00;3.25;;;1.20;;
31073;SDS011;17730;53.552;9.940;2022-07-05T11:52:26;5.68;;;1.33;;
31073;SDS011;17730;53.552;9.940;2022-07-05T11:54:53;2.92;;;1.20;;
31073;SDS011;17730;53.552;9.940;2022-07-05T11:57:23;3.83;;;1.35;;
31073;SDS011;17730;53.552;9.940;2022-07-05T11:59:49;3.97;;;1.23;;
31073;SDS011;17730;53.552;9.940;2022-07-05T12:02:16;1.45;;;1.10;;
31073;SDS011;17730;53.552;9.940;2022-07-05T12:04:49;3.80;;;1.20;;
31073;SDS011;17730;53.552;9.940;2022-07-05T12:07:29;1.70;;;1.10;;
31073;SDS011;17730;53.552;9.940;2022-07-05T12:09:59;3.92;;;0.90;;
31073;SDS011;17730;53.552;9.940;2022-07-05T12:12:47;2.97;;;1.02;;
31073;SDS011;17730;53.552;9.940;2022-07-05T12:15:16;3.72;;;1.00;;
31073;SDS011;17730;53.552;9.940;2022-07-05T12:17:46;4.45;;;1.00;;
31073;SDS011;17730;53.552;9.940;2022-07-05T12:20:13;3.35;;;1.10;;
31073;SDS011;17730;53.552;9.940;2022-07-05T12:22:47;3.85;;;1.13;;
31073;SDS011;17730;53.552;9.940;2022-07-05T12:25:13;3.47;;;1.40;;
31073;SDS011;17730;53.552;9.940;2022-07-05T12:27:44;1.43;;;0.87;;
31073;SDS011;17730;53.552;9.940;2022-07-05T12:30:12;3.70;;;0.88;;
31073;SDS011;17730;53.552;9.940;2022-07-05T12:32:55;2.03;;;0.80;;
31073;SDS011;17730;53.552;9.940;2022-07-05T12:38:17;3.58;;;1.10;;
31073;SDS011;17730;53.552;9.940;2022-07-05T12:41:02;2.42;;;1.10;;
31073;SDS011;17730;53.552;9.940;2022-07-05T12:43:28;6.80;;;1.10;;
31073;SDS011;17730;53.552;9.940;2022-07-05T12:46:03;5.30;;;1.25;;
31073;SDS011;17730;53.552;9.940;2022-07-05T12:48:31;3.85;;;1.35;;
31073;SDS011;17730;53.552;9.940;2022-07-05T12:50:57;6.15;;;1.13;;
31073;SDS011;17730;53.552;9.940;2022-07-05T12:53:23;4.07;;;1.00;;
31073;SDS011;17730;53.552;9.940;2022-07-05T12:56:08;2.33;;;0.80;;
31073;SDS011;17730;53.552;9.940;2022-07-05T12:59:03;5.15;;;0.82;;
31073;SDS011;17730;53.552;9.940;2022-07-05T13:01:31;4.82;;;1.17;;
31073;SDS011;17730;53.552;9.940;2022-07-05T13:14:50;6.07;;;2.10;;
31073;SDS011;17730;53.552;9.940;2022-07-05T13:17:18;10.93;;;3.80;;
31073;SDS011;17730;53.552;9.940;2022-07-05T13:19:49;8.55;;;3.70;;
31073;SDS011;17730;53.552;9.940;2022-07-05T13:22:16;8.68;;;2.03;;
31073;SDS011;17730;53.552;9.940;2022-07-05T13:24:45;4.15;;;1.67;;
31073;SDS011;17730;53.552;9.940;2022-07-05T13:27:12;7.10;;;2.33;;
31073;SDS011;17730;53.552;9.940;2022-07-05T13:29:38;7.90;;;2.80;;
31073;SDS011;17730;53.552;9.940;2022-07-05T13:32:05;7.97;;;2.20;;
31073;SDS011;17730;53.552;9.940;2022-07-05T13:34:31;10.77;;;3.05;;
31073;SDS011;17730;53.552;9.940;2022-07-05T13:36:57;10.02;;;4.20;;
31073;SDS011;17730;53.552;9.940;2022-07-05T13:39:25;7.32;;;2.58;;
31073;SDS011;17730;53.552;9.940;2022-07-05T13:41:51;5.55;;;2.95;;
31073;SDS011;17730;53.552;9.940;2022-07-05T13:44:19;6.47;;;2.25;;
31073;SDS011;17730;53.552;9.940;2022-07-05T13:46:45;8.30;;;2.03;;
31073;SDS011;17730;53.552;9.940;2022-07-05T13:49:12;8.43;;;2.97;;
31073;SDS011;17730;53.552;9.940;2022-07-05T13:51:38;9.70;;;2.80;;
31073;SDS011;17730;53.552;9.940;2022-07-05T13:54:03;7.40;;;1.75;;
31073;SDS011;17730;53.552;9.940;2022-07-05T13:56:30;7.20;;;1.75;;
31073;SDS011;17730;53.552;9.940;2022-07-05T13:59:00;7.28;;;1.40;;
31073;SDS011;17730;53.552;9.940;2022-07-05T14:01:26;9.18;;;1.35;;
31073;SDS011;17730;53.552;9.940;2022-07-05T14:03:54;3.03;;;1.50;;
31073;SDS011;17730;53.552;9.940;2022-07-05T14:06:28;6.25;;;1.67;;
31073;SDS011;17730;53.552;9.940;2022-07-05T14:08:54;3.50;;;1.25;;
31073;SDS011;17730;53.552;9.940;2022-07-05T14:11:20;3.72;;;1.30;;
31073;SDS011;17730;53.552;9.940;2022-07-05T14:13:46;3.45;;;1.60;;
31073;SDS011;17730;53.552;9.940;2022-07-05T14:16:12;8.60;;;3.25;;
31073;SDS011;17730;53.552;9.940;2022-07-05T14:18:38;8.27;;;2.15;;
31073;SDS011;17730;53.552;9.940;2022-07-05T14:21:03;7.65;;;1.95;;
31073;SDS011;17730;53.552;9.940;2022-07-05T14:23:29;12.32;;;6.28;;
31073;SDS011;17730;53.552;9.940;2022-07-05T14:25:57;9.27;;;3.45;;
31073;SDS011;17730;53.552;9.940;2022-07-05T14:28:23;6.90;;;2.13;;
31073;SDS011;17730;53.552;9.940;2022-07-05T14:30:49;10.15;;;2.13;;
31073;SDS011;17730;53.552;9.940;2022-07-05T14:33:15;11.18;;;4.38;;
31073;SDS011;17730;53.552;9.940;2022-07-05T14:35:41;4.32;;;2.15;;
31073;SDS011;17730;53.552;9.940;2022-07-05T14:38:07;8.25;;;3.20;;
31073;SDS011;17730;53.552;9.940;2022-07-05T14:40:33;5.80;;;2.53;;
31073;SDS011;17730;53.552;9.940;2022-07-05T14:42:59;8.35;;;3.42;;
31073;SDS011;17730;53.552;9.940;2022-07-05T14:45:25;11.27;;;3.10;;
31073;SDS011;17730;53.552;9.940;2022-07-05T14:47:51;12.27;;;4.05;;
31073;SDS011;17730;53.552;9.940;2022-07-05T14:50:18;5.85;;;2.50;;
31073;SDS011;17730;53.552;9.940;2022-07-05T14:52:45;8.07;;;2.72;;
31073;SDS011;17730;53.552;9.940;2022-07-05T14:55:11;4.72;;;2.10;;
31073;SDS011;17730;53.552;9.940;2022-07-05T14:57:38;5.65;;;1.80;;
31073;SDS011;17730;53.552;9.940;2022-07-05T15:00:05;5.35;;;1.42;;
31073;SDS011;17730;53.552;9.940;2022-07-05T15:02:32;4.72;;;1.33;;
31073;SDS011;17730;53.552;9.940;2022-07-05T15:04:59;5.00;;;2.72;;
31073;SDS011;17730;53.552;9.940;2022-07-05T15:07:25;6.20;;;2.80;;
31073;SDS011;17730;53.552;9.940;2022-07-05T15:09:51;9.73;;;1.30;;
31073;SDS011;17730;53.552;9.940;2022-07-05T15:12:17;6.53;;;3.30;;
31073;SDS011;17730;53.552;9.940;2022-07-05T15:14:43;7.38;;;3.33;;
31073;SDS011;17730;53.552;9.940;2022-07-05T15:17:10;8.25;;;3.38;;
31073;SDS011;17730;53.552;9.940;2022-07-05T15:19:36;8.85;;;4.97;;
31073;SDS011;17730;53.552;9.940;2022-07-05T15:22:04;13.90;;;6.50;;
31073;SDS011;17730;53.552;9.940;2022-07-05T15:24:29;8.77;;;3.35;;
31073;SDS011;17730;53.552;9.940;2022-07-05T15:26:56;4.57;;;1.45;;
31073;SDS011;17730;53.552;9.940;2022-07-05T15:29:22;19.77;;;6.03;;
31073;SDS011;17730;53.552;9.940;2022-07-05T15:31:49;13.50;;;3.67;;
31073;SDS011;17730;53.552;9.940;2022-07-05T15:34:14;9.35;;;3.95;;
31073;SDS011;17730;53.552;9.940;2022-07-05T15:36:40;10.88;;;4.15;;
31073;SDS011;17730;53.552;9.940;2022-07-05T15:39:06;8.13;;;2.47;;
31073;SDS011;17730;53.552;9.940;2022-07-05T15:41:32;4.53;;;1.50;;
31073;SDS011;17730;53.552;9.940;2022-07-05T15:43:58;7.72;;;1.27;;